createdAt,value
2022-12-09T00:01:52.008Z,99727.47
2022-12-09T00:04:19.908Z,99740.28
2022-12-09T00:06:48.207Z,99717.47
2022-12-09T00:09:17.016Z,99696.69
2022-12-09T00:11:45.813Z,99705.81
2022-12-09T00:14:13.654Z,99705.59
2022-12-09T00:16:43.579Z,99736.22
2022-12-09T00:19:11.960Z,99722.31
2022-12-09T00:21:40.537Z,99709.34
2022-12-09T00:24:11.138Z,99718.06
2022-12-09T00:26:40.127Z,99705.72
2022-12-09T00:29:08.629Z,99710.22
2022-12-09T00:31:39.267Z,99716.81
2022-12-09T00:34:12.505Z,99711.84
2022-12-09T00:36:41.824Z,99710.94
2022-12-09T00:39:12.236Z,99724.31
2022-12-09T00:41:40.702Z,99704.81
2022-12-09T00:44:08.516Z,99698.94
2022-12-09T00:46:37.112Z,99693.50
2022-12-09T00:49:05.559Z,99702.44
2022-12-09T00:51:35.268Z,99684.03
2022-12-09T00:54:03.414Z,99702.44
2022-12-09T00:56:32.785Z,99697.84
2022-12-09T00:59:00.788Z,99687.94
2022-12-09T01:01:29.458Z,99698.13
2022-12-09T01:03:58.783Z,99683.94
2022-12-09T01:06:28.246Z,99688.00
2022-12-09T01:08:57.589Z,99696.56
2022-12-09T01:11:28.399Z,99697.38
2022-12-09T01:14:01.106Z,99697.19
2022-12-09T01:16:31.655Z,99682.13
2022-12-09T01:19:01.719Z,99655.50
2022-12-09T01:21:31.452Z,99692.34
2022-12-09T01:24:00.900Z,99692.78
2022-12-09T01:26:28.864Z,99707.59
2022-12-09T01:28:57.841Z,99705.72
2022-12-09T01:31:26.584Z,99714.38
2022-12-09T01:33:56.895Z,99686.31
2022-12-09T01:36:27.119Z,99665.53
2022-12-09T01:38:55.651Z,99698.41
2022-12-09T01:41:25.167Z,99687.59
2022-12-09T01:44:17.022Z,99722.06
2022-12-09T01:46:45.645Z,99718.00
2022-12-09T01:49:18.926Z,99718.81
2022-12-09T01:51:53.321Z,99679.91
2022-12-09T01:54:22.578Z,99704.00
2022-12-09T01:56:53.025Z,99695.88
2022-12-09T01:59:21.847Z,99688.69
2022-12-09T02:01:54.228Z,99691.91
2022-12-09T02:04:22.573Z,99698.41
2022-12-09T02:06:50.561Z,99707.53
2022-12-09T02:09:18.685Z,99710.50
2022-12-09T02:12:01.588Z,99691.84
2022-12-09T02:14:37.025Z,99708.09
2022-12-09T02:17:19.198Z,99671.97
2022-12-09T02:20:02.013Z,99704.00
2022-12-09T02:22:34.720Z,99664.94
2022-12-09T02:25:14.138Z,99679.56
2022-12-09T02:27:50.404Z,99680.97
2022-12-09T02:30:22.626Z,99690.22
2022-12-09T02:33:13.656Z,99668.28
2022-12-09T02:35:50.054Z,99679.63
2022-12-09T02:38:23.019Z,99651.66
2022-12-09T02:40:55.848Z,99652.56
2022-12-09T02:43:27.746Z,99646.53
2022-12-09T02:45:58.549Z,99660.03
2022-12-09T02:48:31.395Z,99669.97
2022-12-09T02:51:06.204Z,99637.50
2022-12-09T02:53:35.937Z,99633.38
2022-12-09T02:56:06.270Z,99686.34
2022-12-09T02:58:34.119Z,99670.53
2022-12-09T03:01:02.871Z,99670.53
2022-12-09T03:03:34.378Z,99672.50
2022-12-09T03:06:10.172Z,99674.03
2022-12-09T03:08:45.900Z,99681.16
2022-12-09T03:11:17.366Z,99686.94
2022-12-09T03:13:53.578Z,99676.31
2022-12-09T03:16:29.021Z,99670.53
2022-12-09T03:19:02.435Z,99642.81
2022-12-09T03:21:37.020Z,99654.84
2022-12-09T03:24:10.306Z,99644.25
2022-12-09T03:26:40.441Z,99637.94
2022-12-09T03:29:12.160Z,99654.19
2022-12-09T03:31:41.261Z,99664.13
2022-12-09T03:34:15.726Z,99656.06
2022-12-09T03:36:49.814Z,99655.91
2022-12-09T03:39:22.586Z,99653.38
2022-12-09T03:41:56.810Z,99653.81
2022-12-09T03:44:31.454Z,99674.84
2022-12-09T03:47:00.314Z,99664.91
2022-12-09T03:49:28.927Z,99657.97
2022-12-09T03:52:04.105Z,99650.47
2022-12-09T03:54:36.120Z,99670.00
2022-12-09T03:57:05.357Z,99653.28
2022-12-09T03:59:36.630Z,99651.66
2022-12-09T04:02:07.707Z,99671.84
2022-12-09T04:04:36.650Z,99662.28
2022-12-09T04:07:05.935Z,99659.50
2022-12-09T04:09:34.377Z,99660.03
2022-12-09T04:12:02.979Z,99632.50
2022-12-09T04:14:31.192Z,99637.75
2022-12-09T04:16:59.574Z,99634.94
2022-12-09T04:19:30.807Z,99643.06
2022-12-09T04:21:58.945Z,99617.88
2022-12-09T04:24:28.879Z,99626.63
2022-12-09T04:26:57.424Z,99639.09
2022-12-09T04:29:25.319Z,99640.53
2022-12-09T04:31:53.875Z,99625.75
2022-12-09T04:34:22.205Z,99642.34
2022-12-09T04:36:50.507Z,99647.66
2022-12-09T04:39:19.917Z,99642.00
2022-12-09T04:41:49.971Z,99636.94
2022-12-09T04:44:17.964Z,99616.19
2022-12-09T04:46:46.158Z,99630.34
2022-12-09T04:49:14.191Z,99639.44
2022-12-09T04:51:43.292Z,99614.81
2022-12-09T04:54:14.567Z,99626.34
2022-12-09T04:56:43.751Z,99625.44
2022-12-09T04:59:13.448Z,99639.25
2022-12-09T05:01:42.260Z,99643.66
2022-12-09T05:04:11.218Z,99615.56
2022-12-09T05:06:39.566Z,99612.34
2022-12-09T05:09:12.417Z,99642.56
2022-12-09T05:11:41.206Z,99598.44
2022-12-09T05:14:09.047Z,99645.88
2022-12-09T05:16:39.234Z,99635.06
2022-12-09T05:19:07.214Z,99634.59
2022-12-09T05:21:35.719Z,99640.81
2022-12-09T05:24:04.427Z,99648.94
2022-12-09T05:26:32.372Z,99631.03
2022-12-09T05:29:00.796Z,99632.22
2022-12-09T05:31:29.885Z,99653.69
2022-12-09T05:33:59.829Z,99621.47
2022-12-09T05:36:29.257Z,99644.41
2022-12-09T05:38:57.881Z,99642.75
2022-12-09T05:41:27.326Z,99606.66
2022-12-09T05:43:56.030Z,99634.28
2022-12-09T05:46:24.375Z,99622.56
2022-12-09T05:48:53.277Z,99636.56
2022-12-09T05:51:32.358Z,99612.13
2022-12-09T05:54:04.471Z,99622.56
2022-12-09T05:56:39.462Z,99604.97
2022-12-09T05:59:12.130Z,99599.38
2022-12-09T06:01:40.314Z,99613.34
2022-12-09T06:04:14.822Z,99618.84
2022-12-09T06:06:45.450Z,99630.69
2022-12-09T06:09:18.221Z,99634.28
2022-12-09T06:11:47.917Z,99648.22
2022-12-09T06:14:28.612Z,99651.66
2022-12-09T06:16:56.706Z,99631.53
2022-12-09T06:19:30.297Z,99607.25
2022-12-09T06:22:02.149Z,99609.69
2022-12-09T06:24:40.522Z,99617.66
2022-12-09T06:27:12.844Z,99603.84
2022-12-09T06:29:45.641Z,99619.09
2022-12-09T06:32:31.448Z,99653.88
2022-12-09T06:35:00.646Z,99650.44
2022-12-09T06:44:17.129Z,99607.03
2022-12-09T06:46:50.446Z,99630.41
2022-12-09T06:49:19.163Z,99635.91
2022-12-09T06:51:47.729Z,99631.34
2022-12-09T06:54:18.657Z,99640.56
2022-12-09T06:56:46.576Z,99601.72
2022-12-09T06:59:15.007Z,99649.03
2022-12-09T07:01:43.871Z,99620.53
2022-12-09T07:04:14.792Z,99649.50
2022-12-09T07:06:46.289Z,99632.53
2022-12-09T07:09:16.958Z,99628.84
2022-12-09T07:11:47.258Z,99617.56
2022-12-09T07:14:20.030Z,99634.88
2022-12-09T07:16:48.327Z,99654.03
2022-12-09T07:19:18.999Z,99644.28
2022-12-09T07:21:47.900Z,99628.13
2022-12-09T07:24:16.229Z,99638.06
2022-12-09T07:26:44.622Z,99651.34
2022-12-09T07:29:15.911Z,99628.59
2022-12-09T07:31:45.266Z,99643.84
2022-12-09T07:34:13.890Z,99657.81
2022-12-09T07:36:42.630Z,99658.00
2022-12-09T07:39:14.861Z,99649.69
2022-12-09T07:41:43.394Z,99631.81
2022-12-09T07:44:12.985Z,99665.94
2022-12-09T07:49:12.852Z,99664.59
2022-12-09T07:51:40.912Z,99636.81
2022-12-09T07:54:12.376Z,99644.84
2022-12-09T07:56:40.930Z,99645.00
2022-12-09T07:59:10.382Z,99631.19
2022-12-09T08:01:40.085Z,99652.03
2022-12-09T08:04:08.533Z,99645.56
2022-12-09T08:06:37.942Z,99665.22
2022-12-09T08:09:08.502Z,99635.78
2022-12-09T08:11:37.721Z,99639.38
2022-12-09T08:14:11.374Z,99663.06
2022-12-09T08:16:43.536Z,99666.31
2022-12-09T08:19:12.357Z,99666.94
2022-12-09T08:21:40.742Z,99628.84
2022-12-09T08:24:09.111Z,99663.06
2022-12-09T08:26:40.195Z,99672.16
2022-12-09T08:29:10.048Z,99635.97
2022-12-09T08:31:41.693Z,99616.28
2022-12-09T08:34:12.118Z,99681.28
2022-12-09T08:36:43.299Z,99686.53
2022-12-09T08:39:12.340Z,99681.28
2022-12-09T08:41:41.179Z,99677.69
2022-12-09T08:44:12.280Z,99661.81
2022-12-09T08:46:44.596Z,99684.53
2022-12-09T08:49:18.287Z,99693.03
2022-12-09T08:51:48.301Z,99635.16
2022-12-09T08:54:16.637Z,99660.53
2022-12-09T08:56:46.802Z,99692.84
2022-12-09T08:59:16.057Z,99665.38
2022-12-09T09:01:44.655Z,99700.50
2022-12-09T09:04:17.161Z,99690.59
2022-12-09T09:06:49.617Z,99680.19
2022-12-09T09:09:20.359Z,99697.53
2022-12-09T09:11:48.923Z,99693.66
2022-12-09T09:14:17.494Z,99671.88
2022-12-09T09:16:47.181Z,99694.47
2022-12-09T09:19:20.623Z,99648.94
2022-12-09T09:21:49.708Z,99654.16
2022-12-09T09:24:20.703Z,99681.97
2022-12-09T09:26:50.998Z,99676.34
2022-12-09T09:29:21.304Z,99662.16
2022-12-09T09:31:51.904Z,99655.19
2022-12-09T09:34:21.469Z,99700.75
2022-12-09T09:36:51.173Z,99690.84
2022-12-09T09:39:20.164Z,99691.94
2022-12-09T09:41:52.925Z,99706.59
2022-12-09T09:44:27.324Z,99703.97
2022-12-09T09:49:54.469Z,99677.16
2022-12-09T09:52:26.149Z,99699.03
2022-12-09T09:54:54.270Z,99700.66
2022-12-09T09:57:28.520Z,99679.69
2022-12-09T10:00:10.132Z,99700.66
2022-12-09T10:02:52.522Z,99666.81
2022-12-09T10:05:26.198Z,99688.56
2022-12-09T10:07:58.335Z,99666.81
2022-12-09T10:10:40.294Z,99712.69
2022-12-09T10:13:25.654Z,99690.09
2022-12-09T10:16:06.321Z,99711.88
2022-12-09T10:18:39.860Z,99698.97
2022-12-09T10:21:17.194Z,99669.22
2022-12-09T10:23:47.062Z,99702.94
2022-12-09T10:26:21.255Z,99700.94
2022-12-09T10:28:56.317Z,99670.84
2022-12-09T10:31:25.881Z,99686.31
2022-12-09T10:33:54.408Z,99651.53
2022-12-09T10:36:32.392Z,99686.88
2022-12-09T10:39:05.279Z,99644.00
2022-12-09T10:42:01.412Z,99682.81
2022-12-09T10:44:29.715Z,99623.13
2022-12-09T10:46:59.913Z,99669.56
2022-12-09T10:49:28.853Z,99680.16
2022-12-09T10:52:00.115Z,99646.66
2022-12-09T10:54:34.309Z,99660.44
2022-12-09T10:57:09.580Z,99652.59
2022-12-09T10:59:37.491Z,99677.91
2022-12-09T11:02:20.439Z,99662.56
2022-12-09T11:04:49.288Z,99641.78
2022-12-09T11:10:20.392Z,99665.63
2022-12-09T11:12:53.486Z,99658.03
2022-12-09T11:15:32.461Z,99645.41
2022-12-09T11:20:59.271Z,99595.94
2022-12-09T11:23:32.759Z,99660.22
2022-12-09T11:26:02.610Z,99630.19
2022-12-09T11:28:32.864Z,99658.41
2022-12-09T11:33:56.731Z,99612.75
2022-12-09T11:36:30.665Z,99655.44
2022-12-09T11:39:21.366Z,99638.38
2022-12-09T11:42:16.138Z,99667.66
2022-12-09T11:44:49.399Z,99659.16
2022-12-09T11:47:23.706Z,99641.28
2022-12-09T11:49:54.570Z,99614.13
2022-12-09T11:52:26.381Z,99617.19
2022-12-09T11:55:06.103Z,99625.38
2022-12-09T11:57:37.430Z,99645.50
2022-12-09T12:00:15.856Z,99638.19
2022-12-09T12:02:49.643Z,99625.28
2022-12-09T12:05:25.179Z,99611.19
2022-12-09T12:08:04.263Z,99606.78
2022-12-09T12:10:38.180Z,99619.16
2022-12-09T12:13:13.353Z,99645.06
2022-12-09T12:15:44.341Z,99641.75
2022-12-09T12:18:18.946Z,99637.47
2022-12-09T12:21:05.050Z,99610.34
2022-12-09T12:24:11.368Z,99598.50
2022-12-09T12:26:45.093Z,99632.09
2022-12-09T12:29:32.025Z,99625.03
2022-12-09T12:32:25.573Z,99611.78
2022-12-09T12:35:07.112Z,99627.66
2022-12-09T12:37:48.834Z,99630.72
2022-12-09T12:40:28.935Z,99588.28
2022-12-09T12:43:24.522Z,99624.47
2022-12-09T12:46:16.088Z,99624.81
2022-12-09T12:48:56.913Z,99622.59
2022-12-09T12:51:33.808Z,99608.16
2022-12-09T12:54:16.325Z,99621.47
2022-12-09T12:56:52.457Z,99588.03
2022-12-09T12:59:30.656Z,99602.38
2022-12-09T13:02:03.513Z,99630.69
2022-12-09T13:04:41.253Z,99602.25
2022-12-09T13:07:19.175Z,99592.06
2022-12-09T13:09:53.725Z,99622.22
2022-12-09T13:15:26.946Z,99625.00
2022-12-09T13:17:56.182Z,99617.06
2022-12-09T13:20:30.223Z,99614.09
2022-12-09T13:23:04.393Z,99620.94
2022-12-09T13:25:40.358Z,99620.13
2022-12-09T13:28:12.668Z,99618.81
2022-12-09T13:30:54.047Z,99613.28
2022-12-09T13:33:38.327Z,99618.97
2022-12-09T13:36:12.791Z,99617.63
2022-12-09T13:38:42.607Z,99608.59
2022-12-09T13:41:52.597Z,99613.81
2022-12-09T13:44:21.276Z,99632.09
2022-12-09T13:46:50.546Z,99644.50
2022-12-09T13:49:21.291Z,99618.72
2022-12-09T13:51:51.694Z,99644.91
2022-12-09T13:54:21.786Z,99620.00
2022-12-09T13:57:13.158Z,99648.75
2022-12-09T13:59:46.316Z,99638.38
2022-12-09T14:02:26.313Z,99646.31
2022-12-09T14:05:03.364Z,99615.28
2022-12-09T14:07:37.344Z,99649.91
2022-12-09T14:10:06.886Z,99655.44
2022-12-09T14:13:05.235Z,99661.94
2022-12-09T14:15:39.564Z,99649.88
2022-12-09T14:18:29.641Z,99655.09
2022-12-09T14:21:31.864Z,99657.16
2022-12-09T14:24:42.181Z,99646.03
2022-12-09T14:27:18.368Z,99643.75
2022-12-09T14:29:55.410Z,99654.59
2022-12-09T14:32:29.229Z,99648.56
2022-12-09T14:35:26.354Z,99663.44
2022-12-09T14:38:21.121Z,99657.41
2022-12-09T14:41:07.069Z,99662.28
2022-12-09T14:44:00.532Z,99653.97
2022-12-09T14:46:31.807Z,99657.88
2022-12-09T14:49:03.421Z,99610.72
2022-12-09T14:51:36.719Z,99653.78
2022-12-09T14:54:08.109Z,99665.19
2022-12-09T14:56:36.473Z,99669.94
2022-12-09T14:59:10.079Z,99654.50
2022-12-09T15:01:52.597Z,99667.94
2022-12-09T15:04:31.243Z,99682.81
2022-12-09T15:07:15.014Z,99667.50
2022-12-09T15:09:55.120Z,99688.88
2022-12-09T15:12:27.352Z,99685.44
2022-12-09T15:14:59.787Z,99681.03
2022-12-09T15:17:30.885Z,99658.44
2022-12-09T15:20:00.489Z,99672.03
2022-12-09T15:22:32.003Z,99672.50
2022-12-09T15:25:02.506Z,99672.84
2022-12-09T15:27:31.563Z,99676.22
2022-12-09T15:29:59.554Z,99674.06
2022-12-09T15:32:29.667Z,99651.41
2022-12-09T15:35:17.619Z,99667.94
2022-12-09T15:37:48.605Z,99641.94
2022-12-09T15:40:20.613Z,99642.75
2022-12-09T15:42:51.330Z,99677.69
2022-12-09T15:45:21.952Z,99653.78
2022-12-09T15:47:56.453Z,99660.72
2022-12-09T15:50:32.378Z,99636.06
2022-12-09T15:53:11.393Z,99668.31
2022-12-09T15:55:43.840Z,99677.81
2022-12-09T15:58:16.535Z,99659.91
2022-12-09T16:00:48.866Z,99654.88
2022-12-09T16:03:18.997Z,99672.47
2022-12-09T16:05:53.366Z,99688.38
2022-12-09T16:08:23.764Z,99650.63
2022-12-09T16:10:53.316Z,99678.72
2022-12-09T16:13:22.324Z,99666.16
2022-12-09T16:15:53.130Z,99664.88
2022-12-09T16:18:25.015Z,99682.13
2022-12-09T16:21:21.093Z,99676.28
2022-12-09T16:23:52.798Z,99664.06
2022-12-09T16:26:28.740Z,99666.50
2022-12-09T16:28:58.729Z,99658.38
2022-12-09T16:31:27.116Z,99681.13
2022-12-09T16:33:55.570Z,99670.50
2022-12-09T16:36:26.695Z,99686.38
2022-12-09T16:39:43.849Z,99670.94
2022-12-09T16:42:22.864Z,99665.69
2022-12-09T16:44:50.972Z,99682.94
2022-12-09T16:47:21.018Z,99663.63
2022-12-09T16:49:49.886Z,99660.56
2022-12-09T16:52:21.389Z,99692.78
2022-12-09T16:54:52.078Z,99687.72
2022-12-09T16:57:21.604Z,99701.25
2022-12-09T16:59:49.409Z,99669.56
2022-12-09T17:02:22.363Z,99703.69
2022-12-09T17:04:52.064Z,99698.16
2022-12-09T17:07:20.129Z,99688.44
2022-12-09T17:09:47.957Z,99679.69
2022-12-09T17:12:17.348Z,99702.06
2022-12-09T17:14:45.245Z,99676.06
2022-12-09T17:17:13.446Z,99706.03
2022-12-09T17:19:42.143Z,99706.03
2022-12-09T17:22:10.666Z,99703.59
2022-12-09T17:24:38.789Z,99698.97
2022-12-09T17:27:06.676Z,99704.66
2022-12-09T17:29:37.411Z,99724.31
2022-12-09T17:32:05.630Z,99705.13
2022-12-09T17:34:35.247Z,99701.31
2022-12-09T17:37:03.097Z,99728.13
2022-12-09T17:39:31.581Z,99717.09
2022-12-09T17:41:59.499Z,99752.13
2022-12-09T17:44:27.789Z,99747.88
2022-12-09T17:46:57.080Z,99745.09
2022-12-09T17:49:25.419Z,99740.88
2022-12-09T17:51:53.529Z,99741.66
2022-12-09T17:54:21.666Z,99742.00
2022-12-09T17:56:49.571Z,99736.31
2022-12-09T17:59:19.325Z,99746.44
2022-12-09T18:01:47.391Z,99733.06
2022-12-09T18:04:17.451Z,99735.69
2022-12-09T18:06:46.853Z,99739.75
2022-12-09T18:09:18.036Z,99723.84
2022-12-09T18:11:46.121Z,99753.81
2022-12-09T18:14:14.617Z,99750.56
2022-12-09T18:16:43.846Z,99737.72
2022-12-09T18:19:15.228Z,99724.38
2022-12-09T18:21:45.818Z,99754.00
2022-12-09T18:24:15.088Z,99721.94
2022-12-09T18:26:43.220Z,99712.25
2022-12-09T18:29:12.292Z,99750.00
2022-12-09T18:31:40.448Z,99744.94
2022-12-09T18:34:08.753Z,99750.00
2022-12-09T18:36:38.912Z,99761.75
2022-12-09T18:39:47.328Z,99716.19
2022-12-09T18:44:57.833Z,99756.44
2022-12-09T18:47:25.893Z,99764.09
2022-12-09T18:55:14.143Z,99716.91
2022-12-09T19:06:08.336Z,99717.09
2022-12-09T19:19:37.572Z,99770.06
2022-12-09T19:25:25.309Z,99736.59
2022-12-09T19:28:16.763Z,99742.66
2022-12-09T19:37:36.689Z,99733.69
2022-12-09T19:40:45.018Z,99734.03
2022-12-09T19:53:25.150Z,99739.44
2022-12-09T20:06:53.049Z,99748.13
2022-12-09T20:16:26.355Z,99750.78
2022-12-09T20:24:10.167Z,99823.38
2022-12-09T20:26:39.287Z,99822.13
2022-12-09T20:29:11.224Z,99820.94
2022-12-09T20:31:40.684Z,99835.00
2022-12-09T20:34:13.014Z,99772.28
2022-12-09T20:36:43.442Z,99825.69
2022-12-09T20:39:15.963Z,99821.56
2022-12-09T20:41:45.156Z,99829.97
2022-12-09T20:44:14.417Z,99822.94
2022-12-09T20:46:46.375Z,99821.28
2022-12-09T20:49:14.059Z,99823.25
2022-12-09T20:51:44.169Z,99817.22
2022-12-09T20:54:14.557Z,99818.03
2022-12-09T20:56:42.776Z,99794.75
2022-12-09T20:59:12.468Z,99810.06
2022-12-09T21:01:41.135Z,99805.34
2022-12-09T21:04:09.277Z,99832.91
2022-12-09T21:06:39.737Z,99825.25
2022-12-09T21:09:10.230Z,99824.41
2022-12-09T21:11:40.836Z,99785.66
2022-12-09T21:14:09.027Z,99810.91
2022-12-09T21:16:40.197Z,99813.19
2022-12-09T21:19:11.416Z,99832.41
2022-12-09T21:21:41.744Z,99832.22
2022-12-09T21:24:11.713Z,99825.25
2022-12-09T21:26:42.137Z,99830.47
2022-12-09T21:29:11.548Z,99832.41
2022-12-09T21:31:40.965Z,99817.94
2022-12-09T21:34:11.489Z,99833.59
2022-12-09T21:36:42.766Z,99834.41
2022-12-09T21:39:13.713Z,99833.91
2022-12-09T21:41:43.864Z,99837.50
2022-12-09T21:44:16.662Z,99795.81
2022-12-09T21:46:44.865Z,99840.63
2022-12-09T21:49:13.375Z,99834.59
2022-12-09T21:51:42.132Z,99843.44
2022-12-09T21:54:10.543Z,99837.53
2022-12-09T21:56:38.973Z,99838.34
2022-12-09T21:59:09.614Z,99840.16
2022-12-09T22:01:39.684Z,99857.44
2022-12-09T22:04:10.007Z,99845.03
2022-12-09T22:06:38.119Z,99853.88
2022-12-09T22:09:07.958Z,99845.84
2022-12-09T22:11:38.015Z,99851.91
2022-12-09T22:14:07.153Z,99857.94
2022-12-09T22:16:38.433Z,99840.66
2022-12-09T22:19:08.318Z,99858.91
2022-12-09T22:21:37.345Z,99855.00
2022-12-09T22:24:07.319Z,99857.28
2022-12-09T22:26:35.735Z,99819.81
2022-12-09T22:29:05.903Z,99863.66
2022-12-09T22:31:38.090Z,99879.66
2022-12-09T22:34:07.883Z,99844.59
2022-12-09T22:36:37.342Z,99864.97
2022-12-09T22:39:06.882Z,99862.97
2022-12-09T22:41:36.044Z,99826.16
2022-12-09T22:44:04.381Z,99843.44
2022-12-09T22:46:34.641Z,99865.59
2022-12-09T22:49:05.728Z,99850.78
2022-12-09T22:51:36.310Z,99840.19
2022-12-09T22:54:06.461Z,99864.16
2022-12-09T22:56:35.025Z,99863.34
2022-12-09T22:59:02.892Z,99860.06
2022-12-09T23:01:33.363Z,99867.75
2022-12-09T23:04:03.546Z,99859.13
2022-12-09T23:06:32.467Z,99867.44
2022-12-09T23:09:00.440Z,99820.03
2022-12-09T23:11:29.694Z,99844.94
2022-12-09T23:14:00.413Z,99890.78
2022-12-09T23:16:29.540Z,99866.66
2022-12-09T23:18:58.996Z,99874.97
2022-12-09T23:21:30.163Z,99851.50
2022-12-09T23:23:59.498Z,99891.63
2022-12-09T23:26:29.657Z,99884.13
2022-12-09T23:29:02.532Z,99889.19
2022-12-09T23:31:33.525Z,99864.94
2022-12-09T23:34:02.634Z,99878.44
2022-12-09T23:36:34.673Z,99890.66
2022-12-09T23:39:03.931Z,99886.91
2022-12-09T23:41:32.326Z,99863.75
2022-12-09T23:44:00.807Z,99885.91
2022-12-09T23:46:30.520Z,99879.72
2022-12-09T23:48:59.026Z,99895.38
2022-12-09T23:51:28.709Z,99859.84
2022-12-09T23:54:00.084Z,99885.09
2022-12-09T23:56:29.976Z,99868.13
2022-12-09T23:59:01.203Z,99890.81
